CheckWX is a tool to help pilots better visualize weather data.  It is not intended as a substitute for an official pre-flight weather briefing.

12:22:36 UTC

CZFA METAR
Faro Airport
Faro, Canada
Current

13 hours ago

CZFA 212300Z 34002KT 20SM -SN OVC045 M11/M14 A2960 RMK SC8 CLIMAT -10.8/-17.2/0.6CM/0.2MWE LAST OBS/NXT 221500UTC SLP088
Observed
Feb-21 @ 23:00 UTC
Wind
  • 340° at 2 KTS
Visibility
20 SM
Flight Rules
VFR
Conditions
Light Snow
Cloud Levels
  • Overcast at 4,500' AGL
Temperature
-11°C / 12°F
Dewpoint
-14°C / 7°F
Humidity
79%
Altimeter
29.6" Hg
Pressure
1008.8 hPa
Previous

14 hours ago

CZFA 212200Z VRB02KT 30SM -SN FEW017 OVC046 M11/M15 A2960 RMK SC1SC8 SC TR SLP090
Observed
Feb-21 @ 22:00 UTC
Wind
  • Variable at 2 KTS
Visibility
30 SM
Flight Rules
VFR
Conditions
Light Snow
Cloud Levels
  • Few at 1,700' AGL
  • Overcast at 4,600' AGL
Temperature
-11°C / 12°F
Dewpoint
-15°C / 5°F
Humidity
73%
Altimeter
29.6" Hg
Pressure
1009 hPa
Previous

15 hours ago

CZFA 212113Z VRB02KT 30SM -SN FEW018 BKN047 OVC089 M12/M15 A2961 RMK SC1SC7AS1 SC TR SLP095
Observed
Feb-21 @ 21:13 UTC
Wind
  • Variable at 2 KTS
Visibility
30 SM
Flight Rules
VFR
Conditions
Light Snow
Cloud Levels
  • Few at 1,800' AGL
  • Broken at 4,700' AGL
  • Overcast at 8,900' AGL
Temperature
-12°C / 10°F
Dewpoint
-15°C / 5°F
Humidity
79%
Altimeter
29.61" Hg
Pressure
1009.5 hPa